createdAt,value
2023-10-29T00:02:14.329Z,99293.94
2023-10-29T00:04:41.546Z,99295.31
2023-10-29T00:07:08.452Z,99295.19
2023-10-29T00:09:36.267Z,99295.19
2023-10-29T00:12:03.307Z,99291.91
2023-10-29T00:14:31.720Z,99298.34
2023-10-29T00:16:59.305Z,99300.13
2023-10-29T00:19:26.292Z,99303.59
2023-10-29T00:21:53.162Z,99289.13
2023-10-29T00:24:20.158Z,99288.19
2023-10-29T00:28:03.487Z,99286.16
2023-10-29T00:30:30.516Z,99284.38
2023-10-29T00:32:57.846Z,99271.09
2023-10-29T00:35:24.697Z,99279.69
2023-10-29T00:37:51.802Z,99274.16
2023-10-29T00:40:18.720Z,99278.28
2023-10-29T00:42:45.649Z,99270.34
2023-10-29T00:45:12.737Z,99263.63
2023-10-29T00:47:40.072Z,99272.31
2023-10-29T00:50:07.544Z,99270.09
2023-10-29T00:52:36.089Z,99272.97
2023-10-29T00:55:04.629Z,99273.19
2023-10-29T00:57:32.129Z,99278.38
2023-10-29T00:59:59.211Z,99278.88
2023-10-29T01:02:26.456Z,99284.91
2023-10-29T01:04:53.546Z,99282.81
2023-10-29T01:07:20.586Z,99274.66
2023-10-29T01:09:47.484Z,99275.22
2023-10-29T01:12:20.386Z,99279.72
2023-10-29T01:14:47.642Z,99281.69
2023-10-29T01:17:15.147Z,99292.50
2023-10-29T01:19:42.003Z,99290.56
2023-10-29T01:22:08.932Z,99288.75
2023-10-29T01:24:35.852Z,99287.84
2023-10-29T01:27:04.561Z,99288.25
2023-10-29T01:29:31.853Z,99295.19
2023-10-29T01:31:58.784Z,99287.38
2023-10-29T01:34:25.756Z,99293.03
2023-10-29T01:36:52.798Z,99290.34
2023-10-29T01:39:19.720Z,99288.47
2023-10-29T01:41:46.652Z,99281.03
2023-10-29T01:44:13.723Z,99276.03
2023-10-29T01:46:40.597Z,99288.59
2023-10-29T01:49:10.580Z,99283.41
2023-10-29T01:51:37.634Z,99286.69
2023-10-29T01:54:05.265Z,99272.53
2023-10-29T01:56:32.979Z,99275.72
2023-10-29T01:59:00.049Z,99272.84
2023-10-29T02:01:27.267Z,99271.44
2023-10-29T02:03:55.098Z,99266.75
2023-10-29T02:06:22.088Z,99265.94
2023-10-29T02:08:49.223Z,99260.69
2023-10-29T02:11:16.184Z,99262.34
2023-10-29T02:13:45.436Z,99265.16
2023-10-29T02:16:12.477Z,99267.88
2023-10-29T02:18:40.107Z,99281.56
2023-10-29T02:21:27.104Z,99282.59
2023-10-29T02:23:56.199Z,99277.41
2023-10-29T02:26:24.441Z,99270.16
2023-10-29T02:28:51.316Z,99276.63
2023-10-29T02:31:19.359Z,99286.22
2023-10-29T02:33:47.567Z,99288.56
2023-10-29T02:36:17.409Z,99279.69
2023-10-29T02:38:44.541Z,99282.41
2023-10-29T02:41:14.303Z,99277.22
2023-10-29T02:43:41.680Z,99278.44
2023-10-29T02:46:08.803Z,99283.53
2023-10-29T02:48:35.838Z,99282.28
2023-10-29T02:51:02.933Z,99283.53
2023-10-29T02:53:30.182Z,99270.88
2023-10-29T02:56:03.569Z,99276.44
2023-10-29T02:58:30.394Z,99284.16
2023-10-29T03:01:10.694Z,99295.97
2023-10-29T03:03:38.768Z,99298.63
2023-10-29T03:06:10.207Z,99287.44
2023-10-29T03:08:37.805Z,99283.94
2023-10-29T03:11:05.389Z,99283.50
2023-10-29T03:13:32.503Z,99278.88
2023-10-29T03:15:59.597Z,99280.13
2023-10-29T03:18:26.705Z,99283.06
2023-10-29T03:20:55.334Z,99289.28
2023-10-29T03:23:22.809Z,99281.25
2023-10-29T03:25:49.786Z,99278.88
2023-10-29T03:28:17.745Z,99280.91
2023-10-29T03:30:44.653Z,99290.63
2023-10-29T03:33:11.881Z,99289.38
2023-10-29T03:35:38.852Z,99289.06
2023-10-29T03:38:05.810Z,99296.06
2023-10-29T03:40:32.658Z,99287.69
2023-10-29T03:42:59.465Z,99295.34
2023-10-29T03:45:26.327Z,99299.19
2023-10-29T03:47:53.321Z,99303.72
2023-10-29T03:50:20.269Z,99301.03
2023-10-29T03:52:47.127Z,99302.84
2023-10-29T03:55:14.000Z,99291.88
2023-10-29T03:57:41.174Z,99285.22
2023-10-29T04:00:08.781Z,99283.56
2023-10-29T04:02:41.744Z,99289.88
2023-10-29T04:05:10.329Z,99288.63
2023-10-29T04:07:38.122Z,99284.66
2023-10-29T04:10:05.511Z,99285.69
2023-10-29T04:12:33.633Z,99281.53
2023-10-29T04:15:00.960Z,99276.06
2023-10-29T04:17:31.745Z,99268.75
2023-10-29T04:19:59.308Z,99262.38
2023-10-29T04:22:26.252Z,99261.25
2023-10-29T04:24:53.411Z,99258.66
2023-10-29T04:27:20.613Z,99257.28
2023-10-29T04:29:47.656Z,99252.97
2023-10-29T04:32:14.578Z,99253.56
2023-10-29T04:34:41.426Z,99259.31
2023-10-29T04:37:08.214Z,99257.84
2023-10-29T04:39:35.090Z,99255.09
2023-10-29T04:42:02.713Z,99264.38
2023-10-29T04:44:29.916Z,99253.97
2023-10-29T04:46:56.925Z,99260.63
2023-10-29T04:49:23.846Z,99259.03
2023-10-29T04:51:50.734Z,99255.22
2023-10-29T04:54:17.760Z,99258.88
2023-10-29T04:56:44.704Z,99253.78
2023-10-29T04:59:11.629Z,99246.56
2023-10-29T05:01:38.547Z,99246.91
2023-10-29T05:04:05.900Z,99255.38
2023-10-29T05:06:32.931Z,99258.53
2023-10-29T05:08:59.857Z,99250.47
2023-10-29T05:11:26.857Z,99259.44
2023-10-29T05:13:53.955Z,99255.25
2023-10-29T05:16:21.847Z,99254.47
2023-10-29T05:18:49.231Z,99252.66
2023-10-29T05:21:16.347Z,99256.06
2023-10-29T05:23:43.293Z,99263.72
2023-10-29T05:26:10.169Z,99255.13
2023-10-29T05:28:37.024Z,99265.31
2023-10-29T05:31:04.177Z,99252.53
2023-10-29T05:33:32.132Z,99247.56
2023-10-29T05:35:59.524Z,99251.41
2023-10-29T05:38:26.518Z,99247.00
2023-10-29T05:40:53.411Z,99261.47
2023-10-29T05:43:20.186Z,99262.34
2023-10-29T05:45:47.279Z,99267.75
2023-10-29T05:48:14.511Z,99265.59
2023-10-29T05:50:41.564Z,99266.97
2023-10-29T05:53:08.442Z,99270.69
2023-10-29T05:55:36.264Z,99275.56
2023-10-29T05:58:04.148Z,99277.13
2023-10-29T06:00:30.977Z,99273.53
2023-10-29T06:02:57.939Z,99273.97
2023-10-29T06:05:24.943Z,99279.59
2023-10-29T06:07:51.839Z,99288.41
2023-10-29T06:10:18.765Z,99284.44
2023-10-29T06:12:45.903Z,99281.47
2023-10-29T06:15:13.427Z,99286.94
2023-10-29T06:17:42.984Z,99289.75
2023-10-29T06:20:12.051Z,99302.34
2023-10-29T06:22:39.023Z,99304.09
2023-10-29T06:25:06.507Z,99295.97
2023-10-29T06:27:33.568Z,99295.97
2023-10-29T06:30:01.333Z,99301.59
2023-10-29T06:32:31.971Z,99291.34
2023-10-29T06:34:58.859Z,99289.63
2023-10-29T06:37:25.822Z,99292.59
2023-10-29T06:39:53.528Z,99294.19
2023-10-29T06:42:20.420Z,99301.41
2023-10-29T06:44:47.612Z,99305.56
2023-10-29T06:47:15.810Z,99302.53
2023-10-29T06:49:43.300Z,99300.75
2023-10-29T06:52:11.214Z,99303.19
2023-10-29T06:54:38.107Z,99299.59
2023-10-29T06:57:06.511Z,99296.34
2023-10-29T06:59:34.683Z,99297.94
2023-10-29T07:02:02.088Z,99295.44
2023-10-29T07:04:29.195Z,99298.41
2023-10-29T07:06:56.342Z,99291.63
2023-10-29T07:09:23.325Z,99283.38
2023-10-29T07:11:50.927Z,99283.28
2023-10-29T07:14:17.917Z,99282.94
2023-10-29T07:16:48.988Z,99279.44
2023-10-29T07:19:18.112Z,99281.53
2023-10-29T07:21:45.365Z,99294.94
2023-10-29T07:24:12.568Z,99297.75
2023-10-29T07:26:39.506Z,99301.94
2023-10-29T07:29:07.689Z,99294.28
2023-10-29T07:31:34.642Z,99294.28
2023-10-29T07:34:01.748Z,99282.28
2023-10-29T07:36:30.178Z,99284.34
2023-10-29T07:38:58.205Z,99293.16
2023-10-29T07:41:25.248Z,99300.63
2023-10-29T07:43:52.172Z,99292.50
2023-10-29T07:46:19.098Z,99282.66
2023-10-29T07:48:45.937Z,99280.97
2023-10-29T07:51:12.817Z,99289.34
2023-10-29T07:53:39.804Z,99289.13
2023-10-29T07:56:10.952Z,99291.25
2023-10-29T07:58:40.456Z,99292.88
2023-10-29T08:01:15.248Z,99288.34
2023-10-29T08:03:43.422Z,99270.09
2023-10-29T08:06:11.385Z,99275.28
2023-10-29T08:08:38.925Z,99285.94
2023-10-29T08:11:05.960Z,99293.31
2023-10-29T08:13:32.928Z,99307.22
2023-10-29T08:16:00.394Z,99311.63
2023-10-29T08:18:27.457Z,99307.97
2023-10-29T08:20:54.419Z,99311.03
2023-10-29T08:23:21.910Z,99323.94
2023-10-29T08:25:49.111Z,99316.94
2023-10-29T08:28:15.972Z,99311.72
2023-10-29T08:30:43.127Z,99307.63
2023-10-29T08:33:10.066Z,99309.53
2023-10-29T08:35:37.137Z,99308.28
2023-10-29T08:38:04.647Z,99301.56
2023-10-29T08:40:31.523Z,99296.06
2023-10-29T08:42:58.387Z,99291.72
2023-10-29T08:45:41.048Z,99298.69
2023-10-29T08:48:11.412Z,99289.78
2023-10-29T08:50:38.692Z,99290.97
2023-10-29T08:53:05.587Z,99303.66
2023-10-29T08:55:34.694Z,99319.66
2023-10-29T08:58:01.590Z,99313.28
2023-10-29T09:00:38.162Z,99307.56
2023-10-29T09:03:09.579Z,99309.53
2023-10-29T09:05:37.145Z,99314.75
2023-10-29T09:08:04.113Z,99326.00
2023-10-29T09:10:31.101Z,99313.22
2023-10-29T09:13:01.252Z,99314.31
2023-10-29T09:15:29.555Z,99323.66
2023-10-29T09:17:56.514Z,99319.66
2023-10-29T09:20:25.829Z,99322.81
2023-10-29T09:22:53.932Z,99312.97
2023-10-29T09:25:22.301Z,99300.25
2023-10-29T09:27:52.855Z,99305.97
2023-10-29T09:30:19.724Z,99296.91
2023-10-29T09:32:47.452Z,99292.19
2023-10-29T09:35:14.403Z,99298.19
2023-10-29T09:37:41.396Z,99297.22
2023-10-29T09:40:10.548Z,99289.28
2023-10-29T09:42:45.201Z,99294.16
2023-10-29T09:45:13.692Z,99283.66
2023-10-29T09:47:41.105Z,99287.63
2023-10-29T09:50:09.666Z,99288.41
2023-10-29T09:52:37.408Z,99289.34
2023-10-29T09:55:06.102Z,99284.28
2023-10-29T09:57:33.006Z,99277.03
2023-10-29T10:00:01.390Z,99275.50
2023-10-29T10:02:30.632Z,99278.44
2023-10-29T10:04:58.090Z,99283.94
2023-10-29T10:07:26.368Z,99281.78
2023-10-29T10:09:57.225Z,99297.03
2023-10-29T10:12:26.267Z,99291.41
2023-10-29T10:14:54.293Z,99288.09
2023-10-29T10:17:22.187Z,99278.44
2023-10-29T10:19:51.162Z,99273.28
2023-10-29T10:22:37.003Z,99272.19
2023-10-29T10:25:04.634Z,99271.31
2023-10-29T10:27:31.617Z,99268.66
2023-10-29T10:29:58.504Z,99267.06
2023-10-29T10:32:25.536Z,99262.47
2023-10-29T10:34:53.170Z,99261.84
2023-10-29T10:37:20.664Z,99255.94
2023-10-29T10:39:47.577Z,99246.94
2023-10-29T10:42:26.293Z,99252.06
2023-10-29T10:44:56.069Z,99239.22
2023-10-29T10:47:23.064Z,99245.66
2023-10-29T10:49:51.106Z,99240.50
2023-10-29T10:52:19.259Z,99227.84
2023-10-29T10:54:47.125Z,99226.56
2023-10-29T10:57:15.495Z,99232.34
2023-10-29T10:59:43.523Z,99232.06
2023-10-29T11:02:14.103Z,99225.25
2023-10-29T11:04:42.297Z,99240.44
2023-10-29T11:07:09.368Z,99231.50
2023-10-29T11:09:36.771Z,99234.63
2023-10-29T11:12:06.004Z,99236.78
2023-10-29T11:14:32.874Z,99229.44
2023-10-29T11:17:01.002Z,99223.16
2023-10-29T11:19:45.377Z,99219.75
2023-10-29T11:22:18.213Z,99211.66
2023-10-29T11:25:05.957Z,99214.06
2023-10-29T11:27:45.523Z,99208.53
2023-10-29T11:30:16.602Z,99206.53
2023-10-29T11:32:45.256Z,99212.81
2023-10-29T11:35:20.706Z,99208.63
2023-10-29T11:37:51.792Z,99197.63
2023-10-29T11:40:31.730Z,99207.31
2023-10-29T11:43:15.938Z,99195.53
2023-10-29T11:45:52.269Z,99199.75
2023-10-29T11:48:21.489Z,99194.06
2023-10-29T11:51:09.767Z,99186.41
2023-10-29T11:53:40.490Z,99179.91
2023-10-29T11:56:11.260Z,99182.56
2023-10-29T11:58:38.652Z,99187.03
2023-10-29T12:01:05.996Z,99174.22
2023-10-29T12:03:33.690Z,99181.31
2023-10-29T12:06:00.910Z,99171.88
2023-10-29T12:08:28.739Z,99169.53
2023-10-29T12:10:56.898Z,99164.81
2023-10-29T12:13:24.243Z,99168.75
2023-10-29T12:16:04.707Z,99161.41
2023-10-29T12:18:31.636Z,99156.41
2023-10-29T12:21:06.313Z,99165.88
2023-10-29T12:23:34.054Z,99160.88
2023-10-29T12:26:05.389Z,99150.88
2023-10-29T12:28:34.503Z,99147.47
2023-10-29T12:31:01.872Z,99139.06
2023-10-29T12:33:30.841Z,99137.50
2023-10-29T12:36:03.979Z,99145.09
2023-10-29T12:38:31.179Z,99143.22
2023-10-29T12:41:09.577Z,99139.00
2023-10-29T12:44:03.138Z,99142.69
2023-10-29T12:46:30.046Z,99142.53
2023-10-29T12:49:03.080Z,99155.59
2023-10-29T12:51:34.930Z,99137.88
2023-10-29T12:54:17.539Z,99134.81
2023-10-29T12:56:52.104Z,99130.28
2023-10-29T12:59:22.742Z,99121.50
2023-10-29T13:01:57.140Z,99115.94
2023-10-29T13:04:24.946Z,99100.72
2023-10-29T13:06:56.651Z,99106.59
2023-10-29T13:09:29.568Z,99108.69
2023-10-29T13:11:57.647Z,99107.38
2023-10-29T13:14:24.468Z,99103.19
2023-10-29T13:16:55.417Z,99105.03
2023-10-29T13:19:25.408Z,99105.59
2023-10-29T13:21:53.625Z,99105.38
2023-10-29T13:24:21.705Z,99094.59
2023-10-29T13:26:50.330Z,99090.91
2023-10-29T13:29:17.529Z,99092.72
2023-10-29T13:31:44.427Z,99085.34
2023-10-29T13:34:11.736Z,99089.78
2023-10-29T13:36:38.874Z,99084.00
2023-10-29T13:39:08.784Z,99072.75
2023-10-29T13:41:36.611Z,99080.38
2023-10-29T13:44:03.761Z,99076.47
2023-10-29T13:46:32.171Z,99071.22
2023-10-29T13:49:01.043Z,99073.06
2023-10-29T13:51:28.365Z,99072.28
2023-10-29T13:53:55.413Z,99070.72
2023-10-29T13:56:25.329Z,99071.03
2023-10-29T13:58:52.364Z,99063.41
2023-10-29T14:01:20.501Z,99053.97
2023-10-29T14:03:49.905Z,99059.81
2023-10-29T14:06:18.191Z,99049.88
2023-10-29T14:08:45.633Z,99053.28
2023-10-29T14:11:15.015Z,99058.78
2023-10-29T14:13:43.575Z,99056.66
2023-10-29T14:16:12.765Z,99050.66
2023-10-29T14:18:40.186Z,99055.13
2023-10-29T14:21:07.408Z,99038.88
2023-10-29T14:23:34.749Z,99049.38
2023-10-29T14:26:02.822Z,99043.66
2023-10-29T14:28:30.148Z,99051.59
2023-10-29T14:30:57.231Z,99052.13
2023-10-29T14:33:24.516Z,99050.81
2023-10-29T14:35:59.018Z,99049.28
2023-10-29T14:38:27.367Z,99053.47
2023-10-29T14:40:54.943Z,99055.06
2023-10-29T14:43:25.326Z,99052.22
2023-10-29T14:46:03.169Z,99052.78
2023-10-29T14:48:30.490Z,99047.28
2023-10-29T14:50:58.984Z,99055.97
2023-10-29T14:53:25.936Z,99061.78
2023-10-29T14:55:52.812Z,99051.31
2023-10-29T14:58:19.851Z,99031.91
2023-10-29T15:00:47.047Z,99040.38
2023-10-29T15:03:14.821Z,99043.53
2023-10-29T15:05:42.358Z,99031.78
2023-10-29T15:08:09.376Z,99040.47
2023-10-29T15:10:36.417Z,99038.09
2023-10-29T15:13:03.627Z,99037.63
2023-10-29T15:15:32.795Z,99033.16
2023-10-29T15:18:00.235Z,99037.38
2023-10-29T15:20:28.276Z,99039.75
2023-10-29T15:22:55.713Z,99031.88
2023-10-29T15:25:22.660Z,99033.47
2023-10-29T15:27:49.499Z,99040.53
2023-10-29T15:30:16.440Z,99048.97
2023-10-29T15:32:43.376Z,99055.81
2023-10-29T15:35:10.667Z,99047.69
2023-10-29T15:37:39.586Z,99048.97
2023-10-29T15:40:07.858Z,99033.03
2023-10-29T15:42:34.997Z,99042.72
2023-10-29T15:45:01.976Z,99029.34
2023-10-29T15:47:31.635Z,99036.69
2023-10-29T15:49:59.027Z,99045.88
2023-10-29T15:52:26.021Z,99039.56
2023-10-29T15:54:52.855Z,99046.91
2023-10-29T15:57:19.764Z,99042.19
2023-10-29T15:59:46.650Z,99037.50
2023-10-29T16:02:13.585Z,99033.28
2023-10-29T16:04:40.624Z,99046.94
2023-10-29T16:07:09.498Z,99043.25
2023-10-29T16:09:36.759Z,99045.34
2023-10-29T16:12:08.790Z,99052.97
2023-10-29T16:14:36.498Z,99043.00
2023-10-29T16:17:04.394Z,99042.72
2023-10-29T16:19:31.734Z,99053.75
2023-10-29T16:21:58.793Z,99054.75
2023-10-29T16:24:28.094Z,99062.88
2023-10-29T16:26:55.351Z,99057.13
2023-10-29T16:29:22.881Z,99056.81
2023-10-29T16:31:49.700Z,99058.94
2023-10-29T16:34:16.739Z,99062.03
2023-10-29T16:36:43.803Z,99061.22
2023-10-29T16:39:11.244Z,99057.31
2023-10-29T16:41:38.116Z,99052.28
2023-10-29T16:44:05.227Z,99058.31
2023-10-29T16:46:33.104Z,99051.72
2023-10-29T16:49:02.514Z,99048.31
2023-10-29T16:51:30.101Z,99048.84
2023-10-29T16:53:57.144Z,99053.78
2023-10-29T16:56:24.116Z,99065.81
2023-10-29T16:58:51.119Z,99074.16
2023-10-29T17:01:19.031Z,99076.22
2023-10-29T17:03:46.719Z,99069.13
2023-10-29T17:06:15.051Z,99075.91
2023-10-29T17:08:41.985Z,99070.09
2023-10-29T17:11:08.859Z,99077.94
2023-10-29T17:13:35.723Z,99086.53
2023-10-29T17:16:05.380Z,99088.31
2023-10-29T17:18:33.333Z,99089.63
2023-10-29T17:21:01.085Z,99096.63
2023-10-29T17:23:28.301Z,99090.06
2023-10-29T17:25:56.184Z,99090.06
2023-10-29T17:28:23.377Z,99095.84
2023-10-29T17:30:51.222Z,99092.44
2023-10-29T17:33:18.229Z,99092.69
2023-10-29T17:35:46.659Z,99101.75
2023-10-29T17:38:13.589Z,99104.09
2023-10-29T17:40:40.554Z,99110.06
2023-10-29T17:43:07.689Z,99106.38
2023-10-29T17:45:39.162Z,99094.53
2023-10-29T17:48:06.527Z,99102.34
2023-10-29T17:50:33.708Z,99100.53
2023-10-29T17:53:03.740Z,99096.88
2023-10-29T17:55:30.978Z,99095.31
2023-10-29T17:58:00.698Z,99104.19
2023-10-29T18:00:27.776Z,99118.03
2023-10-29T18:02:54.752Z,99120.88
2023-10-29T18:05:22.708Z,99118.25
2023-10-29T18:07:50.559Z,99116.38
2023-10-29T18:10:17.507Z,99111.41
2023-10-29T18:12:46.065Z,99108.28
2023-10-29T18:15:13.165Z,99102.19
2023-10-29T18:17:40.202Z,99100.78
2023-10-29T18:20:08.004Z,99100.97
2023-10-29T18:22:34.923Z,99106.94
2023-10-29T18:25:01.729Z,99115.78
2023-10-29T18:27:31.292Z,99113.41
2023-10-29T18:29:59.419Z,99116.47
2023-10-29T18:32:26.443Z,99115.88
2023-10-29T18:34:53.318Z,99115.53
2023-10-29T18:37:20.388Z,99112.09
2023-10-29T18:39:47.592Z,99117.59
2023-10-29T18:42:14.763Z,99116.72
2023-10-29T18:44:41.858Z,99112.53
2023-10-29T18:47:11.941Z,99113.28
2023-10-29T18:49:38.848Z,99113.09
2023-10-29T18:52:06.410Z,99118.00
2023-10-29T18:54:34.326Z,99130.47
2023-10-29T18:57:01.346Z,99130.66
2023-10-29T18:59:28.571Z,99118.59
2023-10-29T19:01:55.686Z,99123.25
2023-10-29T19:04:23.278Z,99121.38
2023-10-29T19:06:50.198Z,99118.44
2023-10-29T19:09:17.030Z,99108.75
2023-10-29T19:11:44.074Z,99107.72
2023-10-29T19:14:10.991Z,99116.00
2023-10-29T19:16:37.934Z,99116.00
2023-10-29T19:19:05.249Z,99107.06
2023-10-29T19:21:32.233Z,99100.88
2023-10-29T19:23:59.274Z,99106.53
2023-10-29T19:26:26.261Z,99109.63
2023-10-29T19:28:53.119Z,99112.25
2023-10-29T19:31:26.958Z,99111.44
2023-10-29T19:33:55.667Z,99115.88
2023-10-29T19:36:23.105Z,99112.25
2023-10-29T19:38:51.341Z,99111.22
2023-10-29T19:41:18.628Z,99116.44
2023-10-29T19:43:45.738Z,99117.44
2023-10-29T19:46:12.674Z,99107.50
2023-10-29T19:48:41.007Z,99104.03
2023-10-29T19:51:09.264Z,99108.94
2023-10-29T19:53:37.481Z,99109.66
2023-10-29T19:56:08.329Z,99111.66
2023-10-29T19:58:35.633Z,99108.25
2023-10-29T20:01:07.082Z,99117.00
2023-10-29T20:03:34.614Z,99130.56
2023-10-29T20:06:13.066Z,99136.75
2023-10-29T20:08:41.582Z,99138.41
2023-10-29T20:11:11.756Z,99127.50
2023-10-29T20:13:40.203Z,99134.31
2023-10-29T20:16:10.547Z,99122.31
2023-10-29T20:18:38.429Z,99134.84
2023-10-29T20:21:10.666Z,99135.88
2023-10-29T20:23:37.890Z,99132.47
2023-10-29T20:26:15.083Z,99125.69
2023-10-29T20:28:42.407Z,99123.16
2023-10-29T20:31:09.476Z,99113.50
2023-10-29T20:33:36.506Z,99112.50
2023-10-29T20:36:04.186Z,99113.50
2023-10-29T20:38:31.525Z,99120.78
2023-10-29T20:40:58.647Z,99121.03
2023-10-29T20:43:25.586Z,99119.69
2023-10-29T20:45:54.136Z,99128.50
2023-10-29T20:48:22.748Z,99135.53
2023-10-29T20:50:54.797Z,99137.34
2023-10-29T20:53:24.726Z,99129.53
2023-10-29T20:55:52.400Z,99121.41
2023-10-29T20:58:19.207Z,99121.66
2023-10-29T21:00:51.050Z,99121.50
2023-10-29T21:03:18.786Z,99119.81
2023-10-29T21:05:47.094Z,99131.03
2023-10-29T21:08:15.100Z,99130.47
2023-10-29T21:10:42.148Z,99135.91
2023-10-29T21:13:09.106Z,99131.19
2023-10-29T21:15:40.287Z,99140.19
2023-10-29T21:18:07.467Z,99143.34
2023-10-29T21:20:34.441Z,99155.22
2023-10-29T21:23:01.369Z,99161.47
2023-10-29T21:25:28.366Z,99157.75
2023-10-29T21:27:55.420Z,99170.97
2023-10-29T21:30:22.394Z,99164.47
2023-10-29T21:32:49.269Z,99165.72
2023-10-29T21:35:16.284Z,99159.19
2023-10-29T21:37:43.173Z,99166.41
2023-10-29T21:40:10.659Z,99158.59
2023-10-29T21:42:38.311Z,99161.66
2023-10-29T21:45:06.135Z,99168.13
2023-10-29T21:47:33.025Z,99174.78
2023-10-29T21:49:59.947Z,99177.88
2023-10-29T21:52:27.179Z,99179.91
2023-10-29T21:54:54.083Z,99169.72
2023-10-29T21:57:20.983Z,99146.94
2023-10-29T21:59:49.702Z,99163.75
2023-10-29T22:02:16.723Z,99159.59
2023-10-29T22:04:43.566Z,99173.03
2023-10-29T22:07:10.396Z,99176.09
2023-10-29T22:09:37.413Z,99180.75
2023-10-29T22:12:04.587Z,99172.38
2023-10-29T22:14:31.490Z,99169.78
2023-10-29T22:16:58.431Z,99167.19
2023-10-29T22:19:25.605Z,99174.97
2023-10-29T22:21:52.430Z,99167.06
2023-10-29T22:24:19.341Z,99170.69
2023-10-29T22:26:46.164Z,99167.00
2023-10-29T22:29:13.087Z,99175.81
2023-10-29T22:31:40.136Z,99163.72
2023-10-29T22:34:07.041Z,99162.44
2023-10-29T22:36:33.937Z,99176.72
2023-10-29T22:39:00.825Z,99178.03
2023-10-29T22:41:27.719Z,99176.72
2023-10-29T22:43:54.807Z,99174.13
2023-10-29T22:46:23.553Z,99173.56
2023-10-29T22:48:51.428Z,99179.19
2023-10-29T22:51:19.608Z,99182.38
2023-10-29T22:53:47.146Z,99189.16
2023-10-29T22:56:14.290Z,99195.94
2023-10-29T22:58:41.452Z,99187.13
2023-10-29T23:01:11.436Z,99186.00
2023-10-29T23:03:38.432Z,99181.66
2023-10-29T23:06:06.545Z,99181.91
2023-10-29T23:08:34.573Z,99175.94
2023-10-29T23:11:02.077Z,99179.31
2023-10-29T23:13:29.045Z,99184.25
2023-10-29T23:15:56.842Z,99192.63
2023-10-29T23:18:25.606Z,99186.22
2023-10-29T23:20:53.481Z,99184.81
2023-10-29T23:23:20.574Z,99181.91
2023-10-29T23:25:48.133Z,99189.03
2023-10-29T23:28:26.877Z,99189.38
2023-10-29T23:31:02.075Z,99182.59
2023-10-29T23:33:29.523Z,99183.03
2023-10-29T23:35:56.555Z,99185.72
2023-10-29T23:38:23.363Z,99182.59
2023-10-29T23:40:50.142Z,99176.22
2023-10-29T23:43:17.069Z,99174.91
2023-10-29T23:45:43.973Z,99183.50
2023-10-29T23:48:12.282Z,99177.25
2023-10-29T23:50:39.397Z,99169.44
2023-10-29T23:53:07.468Z,99169.59
2023-10-29T23:55:34.572Z,99162.81
2023-10-29T23:58:01.450Z,99173.78
